Terminal Aerodrome Forecast
Issued by NWS

Home | Current Version | Previous Version | Text Only | Print | Product List | Glossary On
Versions: 1 2 3 4 5 6 7 8 9 10 11 12 13 14 15 16 17 18
000
FTAK31 PAFA 191139 CCA
TAFAOT
TAF COR
PAOT 191139Z 1912/2012 18009KT P6SM -RA FEW023 BKN029 OVC035
     FM191500 22008KT 6SM -SHRA BR BKN025 OVC050
     FM192200 29006KT P6SM BKN050=

USA.gov is the U.S. government's official web portal to all federal, state and local government web resources and services.